Time;durP1;ratioP1;P1;durP2;ratioP2;P2;SDS_P1;SDS_P2;PMS_P1;PMS_P2;Temp;Humidity;BMP_temperature;BMP_pressure;BME280_temperature;BME280_humidity;BME280_pressure;Samples;Min_cycle;Max_cycle;Signal;HPM_P1;HPM_P2
2024/03/21 00:01:39;;;;;;;5.23;2.67;;;7.40;99.90;;;;;;493850;241;28681;-73
2024/03/21 00:03:38;;;;;;;3.03;2.70;;;7.40;99.90;;;;;;493753;241;27955;-73
2024/03/21 00:05:39;;;;;;;3.13;2.83;;;7.50;99.90;;;;;;493981;241;28052;-74
2024/03/21 00:07:40;;;;;;;4.43;3.07;;;7.50;99.90;;;;;;493960;237;27667;-73
2024/03/21 00:09:41;;;;;;;3.33;3.03;;;7.50;99.90;;;;;;493874;241;27985;-73
2024/03/21 00:11:42;;;;;;;2.90;2.70;;;7.40;99.90;;;;;;493989;241;27959;-73
2024/03/21 00:13:44;;;;;;;4.10;2.70;;;7.40;99.90;;;;;;494004;241;27939;-72
2024/03/21 00:15:45;;;;;;;2.67;2.47;;;7.40;99.90;;;;;;493973;241;27978;-73
2024/03/21 00:17:46;;;;;;;2.73;2.50;;;7.40;99.90;;;;;;493978;241;27983;-73
2024/03/21 00:19:47;;;;;;;2.83;2.63;;;7.40;99.90;;;;;;493902;241;27713;-74
2024/03/21 00:21:50;;;;;;;2.73;2.53;;;7.40;99.90;;;;;;494000;241;28132;-74
2024/03/21 00:23:50;;;;;;;2.77;2.57;;;7.40;99.90;;;;;;493907;241;27947;-73
2024/03/21 00:25:51;;;;;;;2.90;2.70;;;7.40;99.90;;;;;;493941;237;28063;-73
2024/03/21 00:27:52;;;;;;;4.47;2.43;;;7.40;99.90;;;;;;493945;241;28013;-73
2024/03/21 00:29:54;;;;;;;3.90;3.37;;;7.40;99.90;;;;;;493943;241;27947;-74
2024/03/21 00:31:55;;;;;;;4.40;2.90;;;7.30;99.90;;;;;;494008;237;28282;-74
2024/03/21 00:33:56;;;;;;;3.93;3.30;;;7.30;99.90;;;;;;493902;241;28456;-74
2024/03/21 00:35:58;;;;;;;5.20;3.40;;;7.20;99.90;;;;;;493935;241;28702;-73
2024/03/21 00:37:59;;;;;;;6.03;3.97;;;7.20;99.90;;;;;;493944;241;29269;-73
2024/03/21 00:40:00;;;;;;;4.30;3.60;;;7.20;99.90;;;;;;493954;237;28412;-73
2024/03/21 00:42:01;;;;;;;5.20;3.70;;;7.20;99.90;;;;;;493977;241;28487;-74
2024/03/21 00:44:04;;;;;;;4.13;3.57;;;7.10;99.90;;;;;;493949;241;27697;-73
2024/03/21 00:46:04;;;;;;;3.67;3.30;;;7.10;99.90;;;;;;493847;241;28173;-74
2024/03/21 00:48:05;;;;;;;4.10;3.43;;;7.20;99.90;;;;;;493963;241;28090;-77
2024/03/21 00:50:06;;;;;;;4.60;3.50;;;7.10;99.90;;;;;;493954;241;27730;-74
2024/03/21 00:52:07;;;;;;;4.13;3.33;;;7.20;99.90;;;;;;493951;241;27960;-74
2024/03/21 00:54:09;;;;;;;4.50;3.10;;;7.30;99.90;;;;;;493866;241;27939;-74
2024/03/21 00:56:11;;;;;;;2.97;2.77;;;7.30;99.90;;;;;;493909;241;28024;-73
2024/03/21 00:58:11;;;;;;;3.47;2.90;;;7.30;99.90;;;;;;493784;241;28052;-74
2024/03/21 01:00:13;;;;;;;4.77;3.50;;;7.30;99.90;;;;;;493952;241;27471;-74
2024/03/21 01:02:15;;;;;;;2.87;2.67;;;7.40;99.90;;;;;;493899;241;27921;-73
2024/03/21 01:04:15;;;;;;;4.10;3.53;;;7.40;99.90;;;;;;493855;241;27933;-73
2024/03/21 01:06:16;;;;;;;3.10;2.80;;;7.40;99.90;;;;;;493986;241;28383;-73
2024/03/21 01:08:17;;;;;;;5.00;2.90;;;7.50;99.90;;;;;;493936;241;27984;-75
2024/03/21 01:10:19;;;;;;;3.70;3.30;;;7.50;99.90;;;;;;493937;241;28318;-73
2024/03/21 01:12:20;;;;;;;4.50;3.77;;;7.50;99.90;;;;;;493950;241;28524;-73
2024/03/21 01:14:21;;;;;;;3.70;3.20;;;7.40;99.90;;;;;;493941;241;29168;-73
2024/03/21 01:16:22;;;;;;;5.17;4.00;;;7.40;99.90;;;;;;493799;241;28508;-74
2024/03/21 01:18:34;;;;;;;3.57;3.27;;;7.40;99.90;;;;;;493927;241;28287;-74
2024/03/21 01:20:25;;;;;;;3.53;2.90;;;7.40;99.90;;;;;;493049;241;28066;-72
2024/03/21 01:22:26;;;;;;;3.87;3.10;;;7.40;99.90;;;;;;493916;241;28017;-74
2024/03/21 01:24:27;;;;;;;5.33;3.20;;;7.40;99.90;;;;;;493962;237;28002;-74
2024/03/21 01:26:29;;;;;;;5.07;2.97;;;7.30;99.90;;;;;;493956;241;28075;-73
2024/03/21 01:28:30;;;;;;;3.80;3.30;;;7.30;99.90;;;;;;493926;241;27878;-73
2024/03/21 01:30:31;;;;;;;4.17;3.10;;;7.40;99.90;;;;;;493933;237;27455;-73
2024/03/21 01:32:32;;;;;;;6.07;3.50;;;7.40;99.90;;;;;;493948;241;27957;-73
2024/03/21 01:34:34;;;;;;;2.57;2.37;;;7.40;99.90;;;;;;493994;241;28152;-75
2024/03/21 01:36:44;;;;;;;4.00;3.07;;;7.40;99.90;;;;;;493944;241;28067;-73
2024/03/21 01:38:36;;;;;;;2.93;2.73;;;7.40;99.90;;;;;;493056;241;28219;-73
2024/03/21 01:40:38;;;;;;;3.20;2.80;;;7.40;99.90;;;;;;493886;241;28074;-73
2024/03/21 01:42:39;;;;;;;3.30;3.00;;;7.40;99.90;;;;;;493905;241;27857;-73
2024/03/21 01:44:40;;;;;;;4.00;2.80;;;7.50;99.90;;;;;;493960;241;27884;-74
2024/03/21 01:46:41;;;;;;;2.90;2.70;;;7.50;99.90;;;;;;493943;241;27585;-73
2024/03/21 01:48:43;;;;;;;2.80;2.60;;;7.50;99.90;;;;;;493870;241;27990;-74
2024/03/21 01:50:44;;;;;;;2.77;2.57;;;7.50;99.90;;;;;;493899;241;29345;-73
2024/03/21 01:52:45;;;;;;;3.00;2.67;;;7.50;99.90;;;;;;493975;241;28272;-73
2024/03/21 01:54:46;;;;;;;2.70;2.50;;;7.50;99.90;;;;;;493895;241;28547;-74
2024/03/21 01:56:47;;;;;;;2.77;2.57;;;7.50;99.90;;;;;;493963;241;28452;-73
2024/03/21 01:58:49;;;;;;;3.10;2.80;;;7.50;99.90;;;;;;493878;241;28178;-73
2024/03/21 02:00:50;;;;;;;2.47;2.37;;;7.50;99.90;;;;;;493971;241;28003;-73
2024/03/21 02:02:51;;;;;;;2.33;2.23;;;7.50;99.90;;;;;;493959;241;27558;-73
2024/03/21 02:04:52;;;;;;;3.83;2.50;;;7.40;99.90;;;;;;493910;241;28139;-74
2024/03/21 02:06:54;;;;;;;2.67;2.47;;;7.40;99.90;;;;;;493941;241;27908;-72
2024/03/21 02:08:55;;;;;;;2.23;2.13;;;7.40;99.90;;;;;;493852;241;27851;-73
2024/03/21 02:10:56;;;;;;;3.40;2.43;;;7.40;99.90;;;;;;493967;241;28100;-75
2024/03/21 02:12:58;;;;;;;4.40;2.50;;;7.30;99.90;;;;;;493954;241;27994;-73
2024/03/21 02:14:59;;;;;;;4.13;2.60;;;7.30;99.90;;;;;;493843;241;27995;-74
2024/03/21 02:17:00;;;;;;;3.80;2.70;;;7.20;99.90;;;;;;493907;241;28034;-73
2024/03/21 02:19:01;;;;;;;2.83;2.50;;;7.20;99.90;;;;;;493922;241;27980;-73
2024/03/21 02:21:06;;;;;;;2.40;2.20;;;7.30;99.90;;;;;;493952;241;28070;-74
2024/03/21 02:23:04;;;;;;;5.27;2.23;;;7.30;99.90;;;;;;493661;241;27815;-73
2024/03/21 02:25:05;;;;;;;2.80;2.50;;;7.30;99.90;;;;;;493921;241;27983;-74
2024/03/21 02:27:06;;;;;;;2.60;2.40;;;7.30;99.90;;;;;;493926;238;27979;-73
2024/03/21 02:29:07;;;;;;;2.37;2.17;;;7.20;99.90;;;;;;493937;241;28783;-73
2024/03/21 02:31:09;;;;;;;2.30;2.10;;;7.20;99.90;;;;;;493971;237;28555;-74
2024/03/21 02:33:10;;;;;;;4.03;2.40;;;7.30;99.90;;;;;;493913;241;28396;-73
2024/03/21 02:35:11;;;;;;;3.67;2.53;;;7.30;99.90;;;;;;493879;237;28449;-73
2024/03/21 02:37:12;;;;;;;2.67;2.40;;;7.30;99.90;;;;;;493945;241;28596;-73
2024/03/21 02:39:14;;;;;;;2.60;2.40;;;7.40;99.90;;;;;;493924;237;27818;-73
2024/03/21 02:41:15;;;;;;;2.70;2.50;;;7.40;99.90;;;;;;493863;237;28077;-74
2024/03/21 02:43:16;;;;;;;3.20;2.40;;;7.40;99.90;;;;;;493898;241;27919;-73
2024/03/21 02:45:17;;;;;;;2.17;2.00;;;7.40;99.90;;;;;;493874;241;28002;-73
2024/03/21 02:47:19;;;;;;;1.87;1.77;;;7.40;99.90;;;;;;493979;241;27983;-74
2024/03/21 02:49:20;;;;;;;5.43;2.53;;;7.40;99.90;;;;;;493900;241;28181;-73
2024/03/21 02:51:23;;;;;;;2.17;2.03;;;7.40;99.90;;;;;;493933;241;27899;-73
2024/03/21 02:53:22;;;;;;;2.50;2.30;;;7.40;99.90;;;;;;493832;241;27856;-73
2024/03/21 02:55:24;;;;;;;2.50;2.30;;;7.40;99.90;;;;;;493982;241;27512;-73
2024/03/21 02:57:25;;;;;;;2.70;2.50;;;7.30;99.90;;;;;;494010;241;28139;-74
2024/03/21 02:59:26;;;;;;;3.50;2.70;;;7.20;99.90;;;;;;493954;241;28028;-73
2024/03/21 03:01:27;;;;;;;3.03;2.47;;;7.20;99.90;;;;;;493954;241;27979;-74
2024/03/21 03:03:29;;;;;;;4.40;2.90;;;7.20;99.90;;;;;;493942;237;27894;-73
2024/03/21 03:05:30;;;;;;;2.20;2.10;;;7.20;99.90;;;;;;493953;241;28094;-73
2024/03/21 03:07:31;;;;;;;2.70;2.50;;;7.20;99.90;;;;;;493985;241;28608;-73
2024/03/21 03:09:33;;;;;;;2.40;2.20;;;7.20;99.90;;;;;;493892;241;28483;-73
2024/03/21 03:11:34;;;;;;;6.23;2.70;;;7.20;99.90;;;;;;493907;241;28450;-73
2024/03/21 03:13:35;;;;;;;3.20;3.00;;;7.20;99.90;;;;;;493941;241;29270;-73
2024/03/21 03:15:36;;;;;;;2.70;2.50;;;7.20;99.90;;;;;;494010;241;28569;-73
2024/03/21 03:17:37;;;;;;;2.73;2.10;;;7.20;99.90;;;;;;493953;241;28909;-74
2024/03/21 03:19:39;;;;;;;2.13;1.93;;;7.20;99.90;;;;;;493936;241;27989;-73
2024/03/21 03:21:40;;;;;;;2.47;2.20;;;7.10;99.90;;;;;;493888;241;27943;-73
2024/03/21 03:23:41;;;;;;;2.10;2.00;;;7.10;99.90;;;;;;493984;241;28202;-73
2024/03/21 03:25:42;;;;;;;2.37;2.17;;;7.00;99.90;;;;;;493988;241;28069;-73
2024/03/21 03:27:44;;;;;;;2.33;2.23;;;7.00;99.90;;;;;;493977;241;28091;-73
2024/03/21 03:29:47;;;;;;;2.40;2.20;;;6.90;99.90;;;;;;493913;241;28062;-73
2024/03/21 03:31:46;;;;;;;6.00;2.33;;;6.90;99.90;;;;;;493813;241;27831;-73
2024/03/21 03:36:07;;;;;;;4.13;3.27;;;6.80;99.90;;;;;;493962;241;27957;-73
2024/03/21 03:38:13;;;;;;;2.60;2.40;;;6.70;99.90;;;;;;493872;241;27986;-73
2024/03/21 03:40:13;;;;;;;3.40;3.00;;;6.60;99.90;;;;;;493794;241;28540;-73
2024/03/21 03:42:13;;;;;;;6.63;2.77;;;6.50;99.90;;;;;;493862;241;28602;-75
2024/03/21 03:44:15;;;;;;;4.00;2.53;;;6.50;99.90;;;;;;493988;237;28315;-73
2024/03/21 03:46:16;;;;;;;2.90;2.70;;;6.60;99.90;;;;;;493950;241;28531;-73
2024/03/21 03:48:17;;;;;;;3.47;2.67;;;6.60;99.90;;;;;;493912;241;27561;-72
2024/03/21 03:50:19;;;;;;;3.17;2.97;;;6.70;99.90;;;;;;493964;241;27999;-73
2024/03/21 03:52:20;;;;;;;3.70;2.87;;;6.80;99.90;;;;;;493862;241;27969;-74
2024/03/21 03:54:21;;;;;;;4.50;2.77;;;6.80;99.90;;;;;;493940;241;27940;-73
2024/03/21 03:56:22;;;;;;;2.97;2.43;;;6.90;99.90;;;;;;493926;241;28023;-73
2024/03/21 03:58:23;;;;;;;2.57;2.37;;;6.90;99.90;;;;;;493912;237;28322;-73
2024/03/21 04:00:25;;;;;;;2.63;2.43;;;6.90;99.90;;;;;;493981;241;27915;-73
2024/03/21 04:02:27;;;;;;;3.10;2.80;;;6.90;99.90;;;;;;493981;241;28091;-74
2024/03/21 04:04:27;;;;;;;2.90;2.47;;;6.90;99.90;;;;;;493854;237;28148;-73
2024/03/21 04:06:28;;;;;;;3.87;2.40;;;6.90;99.90;;;;;;493891;241;28598;-73
2024/03/21 04:08:30;;;;;;;2.50;2.30;;;6.90;99.90;;;;;;493917;241;28378;-75
2024/03/21 04:10:31;;;;;;;3.03;2.83;;;6.90;99.90;;;;;;493969;241;28026;-73
2024/03/21 04:12:32;;;;;;;2.43;2.23;;;6.80;99.90;;;;;;493973;241;28004;-74
2024/03/21 04:14:34;;;;;;;2.90;2.30;;;6.80;99.90;;;;;;493907;241;28393;-74
2024/03/21 04:16:35;;;;;;;2.47;2.27;;;6.70;99.90;;;;;;493937;241;28454;-73
2024/03/21 04:18:36;;;;;;;2.50;2.30;;;6.70;99.90;;;;;;493954;241;28449;-75
2024/03/21 04:20:37;;;;;;;3.50;2.50;;;6.70;99.90;;;;;;493958;241;28871;-74
2024/03/21 04:22:38;;;;;;;2.70;2.10;;;6.70;99.90;;;;;;493948;241;28511;-74
2024/03/21 04:24:41;;;;;;;2.63;2.43;;;6.60;99.90;;;;;;493922;241;28241;-73
2024/03/21 04:26:41;;;;;;;2.40;2.23;;;6.60;99.90;;;;;;493865;237;27962;-73
2024/03/21 04:28:42;;;;;;;3.78;2.80;;;6.60;99.90;;;;;;493791;241;28082;-74
2024/03/21 04:30:43;;;;;;;13.93;2.53;;;6.70;99.90;;;;;;493955;241;27572;-73
2024/03/21 04:32:45;;;;;;;3.77;2.97;;;6.70;99.90;;;;;;493956;241;28935;-73
2024/03/21 04:34:46;;;;;;;2.70;2.40;;;6.70;99.90;;;;;;493937;237;27753;-73
2024/03/21 04:36:47;;;;;;;4.90;2.73;;;6.70;99.90;;;;;;493960;241;27912;-73
2024/03/21 04:38:48;;;;;;;3.33;2.70;;;6.70;99.90;;;;;;493913;241;28556;-73
2024/03/21 04:40:50;;;;;;;6.30;3.70;;;6.70;99.90;;;;;;493951;241;28018;-72
2024/03/21 04:42:51;;;;;;;3.80;3.40;;;6.70;99.90;;;;;;493910;241;28124;-73
2024/03/21 04:44:52;;;;;;;5.30;3.73;;;6.80;99.90;;;;;;493973;241;27712;-74
2024/03/21 04:46:53;;;;;;;7.70;4.67;;;6.90;99.90;;;;;;493960;241;27803;-73
2024/03/21 04:48:55;;;;;;;9.60;6.10;;;6.90;99.90;;;;;;493932;241;28205;-73
2024/03/21 04:50:56;;;;;;;7.83;5.90;;;7.00;99.90;;;;;;493772;241;28056;-73
2024/03/21 04:52:57;;;;;;;7.57;5.60;;;7.10;99.90;;;;;;493954;241;28586;-73
2024/03/21 04:54:58;;;;;;;7.00;5.00;;;7.20;99.90;;;;;;494000;241;29480;-74
2024/03/21 04:57:00;;;;;;;5.67;4.93;;;7.20;99.90;;;;;;494006;241;27571;-73
2024/03/21 04:59:01;;;;;;;6.93;4.27;;;7.30;99.90;;;;;;493932;241;28871;-73
2024/03/21 05:01:02;;;;;;;4.70;4.10;;;7.40;99.90;;;;;;493940;241;27580;-73
2024/03/21 05:03:03;;;;;;;9.63;3.50;;;7.40;99.90;;;;;;493988;241;27979;-73
2024/03/21 05:05:05;;;;;;;4.23;3.63;;;7.40;99.90;;;;;;493964;241;28161;-74
2024/03/21 05:07:07;;;;;;;5.37;3.40;;;7.40;99.90;;;;;;493961;241;27933;-73
2024/03/21 05:09:07;;;;;;;3.60;3.30;;;7.40;99.90;;;;;;493862;241;27870;-74
2024/03/21 05:11:08;;;;;;;3.00;2.80;;;7.40;99.90;;;;;;493875;237;28251;-73
2024/03/21 05:13:10;;;;;;;4.97;3.20;;;7.40;99.90;;;;;;493980;241;27988;-73
2024/03/21 05:15:11;;;;;;;3.30;3.00;;;7.40;99.90;;;;;;493954;241;28077;-74
2024/03/21 05:17:14;;;;;;;3.43;3.13;;;7.40;99.90;;;;;;493966;241;27707;-73
2024/03/21 05:19:13;;;;;;;4.50;3.80;;;7.40;99.90;;;;;;493699;241;28002;-73
2024/03/21 05:21:15;;;;;;;4.00;3.50;;;7.40;99.90;;;;;;493999;241;28615;-74
2024/03/21 05:23:16;;;;;;;5.27;3.90;;;7.50;99.90;;;;;;493974;241;28415;-73
2024/03/21 05:25:17;;;;;;;5.90;4.20;;;7.50;99.90;;;;;;493955;241;28554;-73
2024/03/21 05:27:19;;;;;;;3.57;3.27;;;7.50;99.90;;;;;;493934;241;28532;-73
2024/03/21 05:29:20;;;;;;;5.07;3.40;;;7.60;99.90;;;;;;493832;241;28533;-73
2024/03/21 05:31:21;;;;;;;4.80;3.63;;;7.70;99.90;;;;;;493973;241;28030;-75
2024/03/21 05:33:22;;;;;;;4.70;3.13;;;7.70;99.90;;;;;;493967;241;28111;-73
2024/03/21 05:35:23;;;;;;;3.00;2.70;;;7.70;99.90;;;;;;493928;241;27933;-73
2024/03/21 05:37:25;;;;;;;3.90;3.30;;;7.80;99.90;;;;;;493922;241;27941;-73
2024/03/21 05:39:26;;;;;;;3.87;3.47;;;7.70;99.90;;;;;;493951;241;27492;-74
2024/03/21 05:41:27;;;;;;;4.40;3.50;;;7.60;99.90;;;;;;493942;241;28195;-74
2024/03/21 05:43:28;;;;;;;4.07;3.60;;;7.60;99.90;;;;;;493982;241;28050;-73
2024/03/21 05:45:30;;;;;;;3.97;3.60;;;7.60;99.90;;;;;;493959;241;28120;-73
2024/03/21 05:47:31;;;;;;;3.70;3.40;;;7.70;99.90;;;;;;493930;241;27945;-73
2024/03/21 05:49:32;;;;;;;3.53;3.07;;;7.70;99.90;;;;;;493943;237;27917;-73
2024/03/21 05:51:33;;;;;;;3.93;3.53;;;7.70;99.90;;;;;;493989;241;27979;-74
2024/03/21 05:53:35;;;;;;;4.47;3.10;;;7.70;99.90;;;;;;493944;241;27939;-73
2024/03/21 05:55:36;;;;;;;3.43;3.13;;;7.60;99.90;;;;;;493922;241;27980;-74
2024/03/21 05:57:38;;;;;;;3.73;3.00;;;7.60;99.90;;;;;;493942;237;28530;-75
2024/03/21 05:59:38;;;;;;;3.50;3.17;;;7.60;99.90;;;;;;493920;241;28109;-73
2024/03/21 06:01:40;;;;;;;3.87;3.47;;;7.60;99.90;;;;;;493977;241;28098;-73
2024/03/21 06:03:41;;;;;;;3.70;3.40;;;7.50;99.90;;;;;;493947;241;28622;-73
2024/03/21 06:05:42;;;;;;;6.73;3.77;;;7.50;99.90;;;;;;493984;241;28562;-74
2024/03/21 06:07:43;;;;;;;4.17;3.77;;;7.40;99.90;;;;;;494000;241;28508;-75
2024/03/21 06:09:45;;;;;;;3.50;3.13;;;7.40;99.90;;;;;;493937;241;28171;-73
2024/03/21 06:11:46;;;;;;;3.47;3.17;;;7.40;99.90;;;;;;493982;241;28029;-74
2024/03/21 06:13:49;;;;;;;4.63;3.90;;;7.50;99.90;;;;;;493963;241;27817;-74
2024/03/21 06:15:48;;;;;;;4.57;4.03;;;7.50;99.90;;;;;;493827;241;27925;-73
2024/03/21 06:17:50;;;;;;;4.93;4.10;;;7.70;99.90;;;;;;493993;241;27954;-75
2024/03/21 06:19:51;;;;;;;4.83;3.57;;;7.80;99.90;;;;;;493910;241;27777;-74
2024/03/21 06:21:53;;;;;;;3.93;3.50;;;8.00;99.90;;;;;;493938;241;27973;-74
2024/03/21 06:23:53;;;;;;;6.37;4.50;;;8.00;99.90;;;;;;493823;241;28059;-73
2024/03/21 06:25:57;;;;;;;5.07;4.23;;;8.00;99.90;;;;;;493972;241;27723;-73
2024/03/21 06:27:56;;;;;;;7.43;4.40;;;8.00;99.90;;;;;;493721;241;27631;-74
2024/03/21 06:29:57;;;;;;;8.70;4.67;;;8.00;99.90;;;;;;493951;241;27908;-73
2024/03/21 06:31:58;;;;;;;6.33;5.00;;;8.10;99.90;;;;;;493970;241;27982;-73
2024/03/21 06:34:00;;;;;;;5.80;5.07;;;8.10;99.90;;;;;;493984;241;28065;-74
2024/03/21 06:36:01;;;;;;;6.50;5.80;;;8.10;99.90;;;;;;494001;241;27812;-73
2024/03/21 06:38:02;;;;;;;11.70;7.10;;;8.20;99.90;;;;;;493950;241;28372;-74
2024/03/21 06:40:08;;;;;;;8.70;6.43;;;8.20;99.90;;;;;;493871;241;28381;-73
2024/03/21 06:42:08;;;;;;;7.40;6.27;;;8.20;99.90;;;;;;493836;241;27958;-73
2024/03/21 06:44:12;;;;;;;8.93;6.60;;;8.20;99.90;;;;;;493971;241;27963;-74
2024/03/21 06:46:13;;;;;;;10.10;7.17;;;8.30;99.90;;;;;;493955;241;28079;-74
2024/03/21 06:48:14;;;;;;;11.57;7.20;;;8.30;99.90;;;;;;493862;241;28022;-73
2024/03/21 06:50:19;;;;;;;8.70;7.37;;;8.30;99.90;;;;;;493899;241;27909;-73
2024/03/21 06:52:20;;;;;;;8.63;6.53;;;8.30;99.90;;;;;;493911;237;27866;-73
2024/03/21 06:54:21;;;;;;;10.50;7.80;;;8.30;99.90;;;;;;493958;241;27681;-73
2024/03/21 06:56:22;;;;;;;9.80;7.90;;;8.40;99.90;;;;;;493920;241;28074;-74
2024/03/21 06:58:24;;;;;;;9.60;8.10;;;8.40;99.90;;;;;;493879;237;27928;-73
2024/03/21 07:00:26;;;;;;;9.87;8.40;;;8.40;99.90;;;;;;493749;241;27992;-74
2024/03/21 07:02:26;;;;;;;13.87;9.47;;;8.50;99.90;;;;;;493869;237;28354;-75
2024/03/21 07:04:27;;;;;;;12.57;9.20;;;8.60;99.90;;;;;;493946;241;27709;-73
2024/03/21 07:06:29;;;;;;;11.03;8.07;;;8.70;99.90;;;;;;493952;241;28159;-73
2024/03/21 07:08:30;;;;;;;10.90;7.63;;;8.70;99.90;;;;;;493918;241;28342;-74
2024/03/21 07:10:32;;;;;;;15.23;10.10;;;8.70;99.90;;;;;;493914;237;28634;-74
2024/03/21 07:12:32;;;;;;;12.80;8.70;;;8.80;99.90;;;;;;493792;241;28366;-75
2024/03/21 07:14:34;;;;;;;9.60;7.50;;;8.90;99.90;;;;;;493970;237;27920;-74
2024/03/21 07:16:35;;;;;;;11.37;8.73;;;9.00;99.90;;;;;;493934;241;28101;-74
2024/03/21 07:18:36;;;;;;;13.50;9.70;;;9.10;99.90;;;;;;493908;241;27584;-73
2024/03/21 07:20:37;;;;;;;9.60;7.80;;;9.20;99.90;;;;;;494013;241;28027;-74
2024/03/21 07:22:39;;;;;;;10.73;7.77;;;9.30;99.90;;;;;;493969;241;28111;-74
2024/03/21 07:24:40;;;;;;;8.97;7.87;;;9.40;99.90;;;;;;493952;241;27874;-74
2024/03/21 07:26:41;;;;;;;9.50;6.87;;;9.50;99.90;;;;;;493915;241;28023;-74
2024/03/21 07:28:42;;;;;;;12.13;8.17;;;9.50;99.90;;;;;;493907;241;28135;-73
2024/03/21 07:30:45;;;;;;;8.10;6.90;;;9.70;99.90;;;;;;494007;241;27991;-73
2024/03/21 07:32:45;;;;;;;9.00;6.53;;;9.80;99.90;;;;;;493902;241;28521;-74
2024/03/21 07:34:46;;;;;;;9.50;7.60;;;10.00;99.90;;;;;;493923;241;28260;-73
2024/03/21 07:36:47;;;;;;;9.63;7.80;;;10.20;99.90;;;;;;493961;241;28443;-75
2024/03/21 07:38:49;;;;;;;8.27;7.13;;;10.30;99.90;;;;;;493969;241;28516;-75
2024/03/21 07:40:50;;;;;;;12.87;8.10;;;10.50;99.90;;;;;;493999;241;27937;-73
2024/03/21 07:42:51;;;;;;;9.90;8.30;;;10.60;99.90;;;;;;493965;241;27859;-74
2024/03/21 07:44:52;;;;;;;13.40;9.87;;;10.60;99.90;;;;;;493901;241;28051;-73
2024/03/21 07:46:54;;;;;;;8.20;6.90;;;10.60;99.90;;;;;;493949;241;27978;-73
2024/03/21 07:48:55;;;;;;;10.43;8.63;;;10.60;99.90;;;;;;493943;241;28002;-74
2024/03/21 07:50:56;;;;;;;10.60;8.00;;;10.60;99.90;;;;;;493957;241;28041;-75
2024/03/21 07:52:57;;;;;;;8.40;6.83;;;10.50;99.90;;;;;;493926;241;28119;-74
2024/03/21 07:54:59;;;;;;;8.63;7.17;;;10.40;99.90;;;;;;493891;241;29092;-74
2024/03/21 07:57:00;;;;;;;11.57;8.77;;;10.40;99.90;;;;;;493977;241;28584;-73
2024/03/21 07:59:01;;;;;;;8.90;7.23;;;10.40;99.90;;;;;;493925;241;28576;-74
2024/03/21 08:01:02;;;;;;;9.50;8.33;;;10.30;99.90;;;;;;493942;241;28165;-73
2024/03/21 08:03:04;;;;;;;8.70;7.40;;;10.30;99.90;;;;;;493926;241;28175;-74
2024/03/21 08:05:05;;;;;;;8.23;6.10;;;10.20;99.90;;;;;;493982;241;27891;-74
2024/03/21 08:07:06;;;;;;;9.60;6.87;;;10.20;99.90;;;;;;493973;241;27949;-73
2024/03/21 08:09:09;;;;;;;9.70;7.40;;;10.10;99.90;;;;;;493918;237;27855;-75
2024/03/21 08:11:09;;;;;;;10.33;7.10;;;10.10;99.90;;;;;;493823;237;27931;-74
2024/03/21 08:13:10;;;;;;;7.23;6.17;;;10.10;99.90;;;;;;493932;241;28102;-74
2024/03/21 08:15:11;;;;;;;7.40;6.40;;;10.10;99.90;;;;;;493977;241;28042;-75
2024/03/21 08:17:12;;;;;;;7.30;6.50;;;10.00;99.90;;;;;;493943;241;27920;-74
2024/03/21 08:19:14;;;;;;;8.47;6.20;;;10.00;99.90;;;;;;493908;241;28583;-74
2024/03/21 08:21:15;;;;;;;11.80;8.70;;;10.00;99.90;;;;;;493947;241;28507;-72
2024/03/21 08:23:16;;;;;;;8.30;6.33;;;10.00;99.90;;;;;;493974;241;28545;-73
2024/03/21 08:25:17;;;;;;;10.93;7.87;;;10.10;99.90;;;;;;494010;241;27951;-75
2024/03/21 08:27:19;;;;;;;8.07;6.83;;;10.20;99.90;;;;;;493939;241;27988;-73
2024/03/21 08:29:20;;;;;;;11.47;6.47;;;10.20;99.90;;;;;;493907;241;28024;-74
2024/03/21 08:31:21;;;;;;;8.03;5.60;;;10.30;99.90;;;;;;493931;241;27744;-73
2024/03/21 08:33:23;;;;;;;10.00;7.33;;;10.40;99.90;;;;;;493981;237;27707;-74
2024/03/21 08:35:24;;;;;;;6.70;6.00;;;10.50;99.90;;;;;;493921;241;28136;-74
2024/03/21 08:37:25;;;;;;;7.30;6.17;;;10.50;99.90;;;;;;493937;241;27989;-74
2024/03/21 08:39:26;;;;;;;8.73;6.50;;;10.50;99.90;;;;;;493901;241;28462;-74
2024/03/21 08:41:27;;;;;;;7.33;6.40;;;10.50;99.90;;;;;;494007;241;28498;-75
2024/03/21 08:43:29;;;;;;;7.63;6.30;;;10.70;99.90;;;;;;493924;237;28410;-74
2024/03/21 08:45:30;;;;;;;12.20;8.10;;;10.70;99.90;;;;;;493919;241;28038;-75
2024/03/21 08:47:31;;;;;;;10.13;6.50;;;10.80;99.90;;;;;;493936;241;28050;-74
2024/03/21 08:49:32;;;;;;;23.70;16.00;;;10.90;99.90;;;;;;493928;241;27982;-74
2024/03/21 08:51:34;;;;;;;21.90;14.10;;;11.20;99.90;;;;;;493973;241;27997;-75
2024/03/21 08:53:37;;;;;;;21.37;15.53;;;11.60;99.90;;;;;;493918;241;27939;-73
2024/03/21 08:55:36;;;;;;;34.70;22.20;;;11.60;99.90;;;;;;493745;241;28299;-74
2024/03/21 08:57:38;;;;;;;35.53;25.33;;;11.80;99.90;;;;;;493942;241;29277;-74
2024/03/21 08:59:39;;;;;;;37.80;25.53;;;11.90;99.90;;;;;;493917;241;28520;-73
2024/03/21 09:01:40;;;;;;;42.23;27.03;;;12.10;99.90;;;;;;493967;237;28241;-74
2024/03/21 09:03:41;;;;;;;37.50;26.10;;;12.10;99.90;;;;;;493904;241;28222;-74
2024/03/21 09:05:44;;;;;;;40.23;27.97;;;;;;;;;;493903;241;28525;-74
2024/03/21 09:07:45;;;;;;;39.47;26.23;;;12.20;99.90;;;;;;493979;241;27481;-74
2024/03/21 09:09:46;;;;;;;42.73;27.53;;;12.20;99.90;;;;;;493932;241;28306;-73
2024/03/21 09:11:47;;;;;;;39.17;26.67;;;12.20;99.90;;;;;;493942;241;28398;-74
2024/03/21 09:13:49;;;;;;;38.60;26.50;;;12.30;99.90;;;;;;493932;241;28433;-74
2024/03/21 09:15:50;;;;;;;43.20;29.13;;;12.50;99.90;;;;;;493988;241;28200;-73
2024/03/21 09:17:51;;;;;;;46.57;30.13;;;12.60;99.90;;;;;;493971;241;28252;-73
2024/03/21 09:19:53;;;;;;;40.40;27.20;;;12.70;99.90;;;;;;493918;241;28516;-73
2024/03/21 09:21:56;;;;;;;44.67;28.80;;;12.60;99.90;;;;;;493957;241;28740;-72
2024/03/21 09:23:55;;;;;;;40.90;27.07;;;12.70;99.90;;;;;;493768;241;28865;-73
2024/03/21 09:25:56;;;;;;;42.07;28.27;;;12.80;99.90;;;;;;494004;241;28602;-73
2024/03/21 09:27:58;;;;;;;39.33;27.70;;;12.80;99.90;;;;;;493948;241;28049;-73
2024/03/21 09:29:59;;;;;;;38.90;26.20;;;12.80;99.90;;;;;;493888;241;28355;-73
2024/03/21 09:32:00;;;;;;;35.83;26.07;;;12.90;99.90;;;;;;494014;241;28716;-74
2024/03/21 09:34:01;;;;;;;34.23;23.07;;;12.90;99.90;;;;;;494005;241;28248;-73
2024/03/21 09:36:09;;;;;;;32.63;23.90;;;12.70;99.90;;;;;;493987;241;28845;-73
2024/03/21 09:38:10;;;;;;;38.50;25.40;;;12.70;99.90;;;;;;493903;241;28279;-73
2024/03/21 09:40:13;;;;;;;34.40;23.37;;;12.90;99.90;;;;;;493954;241;28949;-73
2024/03/21 09:42:12;;;;;;;30.53;21.70;;;13.00;99.90;;;;;;493871;237;28228;-74
2024/03/21 09:44:14;;;;;;;30.37;21.80;;;13.00;99.90;;;;;;493943;241;28607;-73
2024/03/21 09:46:15;;;;;;;30.77;21.23;;;13.10;99.90;;;;;;493971;241;28784;-74
2024/03/21 09:48:16;;;;;;;34.27;23.53;;;13.10;99.90;;;;;;493905;241;28344;-73
2024/03/21 09:50:23;;;;;;;30.57;22.20;;;13.10;99.90;;;;;;494000;241;28201;-73
2024/03/21 09:52:18;;;;;;;30.00;20.90;;;13.10;99.90;;;;;;493339;241;28286;-75
2024/03/21 09:54:20;;;;;;;26.63;19.30;;;13.10;99.90;;;;;;493941;241;28670;-73
2024/03/21 09:56:21;;;;;;;28.73;19.13;;;13.10;99.90;;;;;;493958;237;28383;-74
2024/03/21 09:58:23;;;;;;;25.40;17.67;;;13.30;99.90;;;;;;493906;241;29507;-73
2024/03/21 10:00:23;;;;;;;26.70;18.13;;;13.50;99.90;;;;;;493999;241;28602;-74
2024/03/21 10:02:25;;;;;;;26.97;19.93;;;13.80;99.90;;;;;;494015;241;28210;-75
2024/03/21 10:04:26;;;;;;;29.77;20.17;;;13.70;99.90;;;;;;493940;241;28202;-73
2024/03/21 10:06:27;;;;;;;28.63;20.80;;;13.60;99.90;;;;;;493748;241;28410;-73
2024/03/21 10:08:29;;;;;;;28.17;20.23;;;13.70;99.90;;;;;;493907;241;28374;-76
2024/03/21 10:10:30;;;;;;;26.37;19.47;;;13.90;99.90;;;;;;493908;241;28875;-73
2024/03/21 10:12:31;;;;;;;25.60;18.23;;;14.20;99.90;;;;;;493949;241;29346;-75
2024/03/21 10:14:32;;;;;;;25.47;20.00;;;14.30;99.90;;;;;;493892;241;28486;-73
2024/03/21 10:16:34;;;;;;;33.80;20.30;;;14.50;99.90;;;;;;493962;241;28457;-73
2024/03/21 10:18:35;;;;;;;27.57;19.30;;;14.50;99.90;;;;;;493923;241;28577;-75
2024/03/21 10:20:36;;;;;;;29.17;22.73;;;14.40;99.90;;;;;;493781;241;28944;-73
2024/03/21 10:22:37;;;;;;;32.20;23.03;;;14.10;99.90;;;;;;493907;241;28846;-74
2024/03/21 10:24:39;;;;;;;30.53;21.60;;;13.90;99.90;;;;;;493924;241;30073;-72
2024/03/21 10:26:40;;;;;;;28.97;22.90;;;13.80;99.90;;;;;;493958;241;28552;-73
2024/03/21 10:28:41;;;;;;;32.53;22.83;;;13.80;99.90;;;;;;493910;237;28447;-73
2024/03/21 10:30:42;;;;;;;29.53;21.50;;;13.80;99.90;;;;;;493956;241;28500;-72
2024/03/21 10:32:44;;;;;;;32.93;23.00;;;13.90;99.90;;;;;;493912;237;28550;-73
2024/03/21 10:34:45;;;;;;;32.63;22.90;;;14.20;99.90;;;;;;493956;241;28951;-75
2024/03/21 10:36:46;;;;;;;34.77;23.10;;;14.30;99.90;;;;;;493891;241;28843;-73